sensor_id;sensor_type;location;lat;lon;timestamp;pressure;altitude;pressure_sealevel;temperature
14023;BMP180;7086;48.116;11.580;2023-02-26T00:01:34;94379.00;;;4.70
14023;BMP180;7086;48.116;11.580;2023-02-26T00:04:06;94420.00;;;4.70
14023;BMP180;7086;48.116;11.580;2023-02-26T00:06:45;94406.00;;;4.70
14023;BMP180;7086;48.116;11.580;2023-02-26T00:09:27;94405.00;;;4.70
14023;BMP180;7086;48.116;11.580;2023-02-26T00:11:57;94396.00;;;4.70
14023;BMP180;7086;48.116;11.580;2023-02-26T00:14:27;94380.00;;;4.70
14023;BMP180;7086;48.116;11.580;2023-02-26T00:17:21;94308.00;;;4.70
14023;BMP180;7086;48.116;11.580;2023-02-26T00:19:52;94321.00;;;4.70
14023;BMP180;7086;48.116;11.580;2023-02-26T00:22:20;94291.00;;;4.60
14023;BMP180;7086;48.116;11.580;2023-02-26T00:24:48;94417.00;;;4.80
14023;BMP180;7086;48.116;11.580;2023-02-26T00:27:16;94416.00;;;4.70
14023;BMP180;7086;48.116;11.580;2023-02-26T00:29:46;94410.00;;;4.70
14023;BMP180;7086;48.116;11.580;2023-02-26T00:32:16;94309.00;;;4.80
14023;BMP180;7086;48.116;11.580;2023-02-26T00:34:47;94335.00;;;4.80
14023;BMP180;7086;48.116;11.580;2023-02-26T00:37:28;94380.00;;;4.80
14023;BMP180;7086;48.116;11.580;2023-02-26T00:40:21;94320.00;;;4.70
14023;BMP180;7086;48.116;11.580;2023-02-26T00:43:03;94366.00;;;4.80
14023;BMP180;7086;48.116;11.580;2023-02-26T00:45:34;94325.00;;;4.80
14023;BMP180;7086;48.116;11.580;2023-02-26T00:48:34;94396.00;;;4.30
14023;BMP180;7086;48.116;11.580;2023-02-26T00:51:14;94346.00;;;4.70
14023;BMP180;7086;48.116;11.580;2023-02-26T00:53:51;94343.00;;;4.80
14023;BMP180;7086;48.116;11.580;2023-02-26T00:56:21;94422.00;;;4.80
14023;BMP180;7086;48.116;11.580;2023-02-26T00:58:50;94429.00;;;4.80
14023;BMP180;7086;48.116;11.580;2023-02-26T01:01:20;94273.00;;;4.80
14023;BMP180;7086;48.116;11.580;2023-02-26T01:03:48;94343.00;;;4.80
14023;BMP180;7086;48.116;11.580;2023-02-26T01:06:20;94462.00;;;4.80
14023;BMP180;7086;48.116;11.580;2023-02-26T01:09:11;94324.00;;;4.70
14023;BMP180;7086;48.116;11.580;2023-02-26T01:11:41;94442.00;;;4.80
14023;BMP180;7086;48.116;11.580;2023-02-26T01:14:09;94433.00;;;4.70
14023;BMP180;7086;48.116;11.580;2023-02-26T01:16:54;94439.00;;;4.70
14023;BMP180;7086;48.116;11.580;2023-02-26T01:19:33;94301.00;;;4.70
14023;BMP180;7086;48.116;11.580;2023-02-26T01:22:09;94417.00;;;4.60
14023;BMP180;7086;48.116;11.580;2023-02-26T01:24:39;94342.00;;;4.60
14023;BMP180;7086;48.116;11.580;2023-02-26T01:27:07;94441.00;;;4.50
14023;BMP180;7086;48.116;11.580;2023-02-26T01:29:35;94459.00;;;4.50
14023;BMP180;7086;48.116;11.580;2023-02-26T01:32:13;94427.00;;;4.40
14023;BMP180;7086;48.116;11.580;2023-02-26T01:34:47;94389.00;;;4.40
14023;BMP180;7086;48.116;11.580;2023-02-26T01:37:27;94399.00;;;4.40
14023;BMP180;7086;48.116;11.580;2023-02-26T01:43:10;94439.00;;;4.10
14023;BMP180;7086;48.116;11.580;2023-02-26T01:45:54;94400.00;;;4.10
14023;BMP180;7086;48.116;11.580;2023-02-26T01:48:35;94459.00;;;4.10
14023;BMP180;7086;48.116;11.580;2023-02-26T01:51:04;94492.00;;;4.00
14023;BMP180;7086;48.116;11.580;2023-02-26T01:53:32;94452.00;;;4.00
14023;BMP180;7086;48.116;11.580;2023-02-26T01:56:04;94457.00;;;3.90
14023;BMP180;7086;48.116;11.580;2023-02-26T01:58:36;94455.00;;;3.70
14023;BMP180;7086;48.116;11.580;2023-02-26T02:03:42;94421.00;;;3.90
14023;BMP180;7086;48.116;11.580;2023-02-26T02:06:19;94488.00;;;3.80
14023;BMP180;7086;48.116;11.580;2023-02-26T02:08:48;94460.00;;;3.90
14023;BMP180;7086;48.116;11.580;2023-02-26T02:11:16;94463.00;;;3.80
14023;BMP180;7086;48.116;11.580;2023-02-26T02:14:00;94438.00;;;3.80
14023;BMP180;7086;48.116;11.580;2023-02-26T02:16:38;94359.00;;;3.40
14023;BMP180;7086;48.116;11.580;2023-02-26T02:19:37;94379.00;;;3.80
14023;BMP180;7086;48.116;11.580;2023-02-26T02:30:32;94481.00;;;3.70
14023;BMP180;7086;48.116;11.580;2023-02-26T02:40:23;94516.00;;;3.60
14023;BMP180;7086;48.116;11.580;2023-02-26T02:43:00;94493.00;;;3.30
14023;BMP180;7086;48.116;11.580;2023-02-26T02:45:36;94492.00;;;3.50
14023;BMP180;7086;48.116;11.580;2023-02-26T02:48:11;94459.00;;;3.40
14023;BMP180;7086;48.116;11.580;2023-02-26T02:50:44;94355.00;;;3.40
14023;BMP180;7086;48.116;11.580;2023-02-26T02:53:20;94478.00;;;3.40
14023;BMP180;7086;48.116;11.580;2023-02-26T02:55:56;94467.00;;;3.40
14023;BMP180;7086;48.116;11.580;2023-02-26T02:58:30;94513.00;;;3.40
14023;BMP180;7086;48.116;11.580;2023-02-26T03:01:05;94474.00;;;3.40
14023;BMP180;7086;48.116;11.580;2023-02-26T03:03:39;94507.00;;;3.30
14023;BMP180;7086;48.116;11.580;2023-02-26T03:06:09;94510.00;;;3.50
14023;BMP180;7086;48.116;11.580;2023-02-26T03:08:40;94515.00;;;3.50
14023;BMP180;7086;48.116;11.580;2023-02-26T03:11:08;94367.00;;;3.50
14023;BMP180;7086;48.116;11.580;2023-02-26T03:13:38;94502.00;;;3.50
14023;BMP180;7086;48.116;11.580;2023-02-26T03:16:27;94508.00;;;3.50
14023;BMP180;7086;48.116;11.580;2023-02-26T03:19:07;94485.00;;;3.50
14023;BMP180;7086;48.116;11.580;2023-02-26T03:21:48;94549.00;;;3.50
14023;BMP180;7086;48.116;11.580;2023-02-26T03:24:28;94554.00;;;3.50
14023;BMP180;7086;48.116;11.580;2023-02-26T03:27:06;94557.00;;;3.50
14023;BMP180;7086;48.116;11.580;2023-02-26T03:29:42;94405.00;;;3.50
14023;BMP180;7086;48.116;11.580;2023-02-26T03:32:18;94534.00;;;3.50
14023;BMP180;7086;48.116;11.580;2023-02-26T03:34:52;94531.00;;;3.50
14023;BMP180;7086;48.116;11.580;2023-02-26T03:37:26;94566.00;;;3.50
14023;BMP180;7086;48.116;11.580;2023-02-26T03:40:06;94578.00;;;3.40
14023;BMP180;7086;48.116;11.580;2023-02-26T03:42:40;94436.00;;;3.40
14023;BMP180;7086;48.116;11.580;2023-02-26T03:45:16;94547.00;;;3.40
14023;BMP180;7086;48.116;11.580;2023-02-26T03:47:50;94455.00;;;3.30
14023;BMP180;7086;48.116;11.580;2023-02-26T03:50:25;94542.00;;;3.10
14023;BMP180;7086;48.116;11.580;2023-02-26T03:53:16;94491.00;;;3.10
14023;BMP180;7086;48.116;11.580;2023-02-26T03:55:56;94473.00;;;3.20
14023;BMP180;7086;48.116;11.580;2023-02-26T03:58:25;94520.00;;;3.20
14023;BMP180;7086;48.116;11.580;2023-02-26T04:00:58;94442.00;;;3.10
14023;BMP180;7086;48.116;11.580;2023-02-26T04:03:35;94399.00;;;2.60
14023;BMP180;7086;48.116;11.580;2023-02-26T04:06:25;94448.00;;;3.10
14023;BMP180;7086;48.116;11.580;2023-02-26T04:09:26;94419.00;;;3.10
14023;BMP180;7086;48.116;11.580;2023-02-26T04:11:56;94449.00;;;3.10
14023;BMP180;7086;48.116;11.580;2023-02-26T04:14:29;94488.00;;;3.20
14023;BMP180;7086;48.116;11.580;2023-02-26T04:21:13;94484.00;;;3.10
14023;BMP180;7086;48.116;11.580;2023-02-26T04:24:08;94561.00;;;2.90
14023;BMP180;7086;48.116;11.580;2023-02-26T04:26:50;94453.00;;;3.10
14023;BMP180;7086;48.116;11.580;2023-02-26T04:29:24;94466.00;;;3.10
14023;BMP180;7086;48.116;11.580;2023-02-26T04:32:10;94593.00;;;2.80
14023;BMP180;7086;48.116;11.580;2023-02-26T04:34:53;94533.00;;;2.70
14023;BMP180;7086;48.116;11.580;2023-02-26T04:37:46;94612.00;;;3.00
14023;BMP180;7086;48.116;11.580;2023-02-26T04:40:20;94454.00;;;3.00
14023;BMP180;7086;48.116;11.580;2023-02-26T04:42:48;94542.00;;;3.00
14023;BMP180;7086;48.116;11.580;2023-02-26T05:00:40;94497.00;;;2.70
14023;BMP180;7086;48.116;11.580;2023-02-26T05:03:07;94560.00;;;2.70
14023;BMP180;7086;48.116;11.580;2023-02-26T05:08:52;94503.00;;;2.60
14023;BMP180;7086;48.116;11.580;2023-02-26T05:12:00;94458.00;;;2.60
14023;BMP180;7086;48.116;11.580;2023-02-26T05:14:36;94517.00;;;2.50
14023;BMP180;7086;48.116;11.580;2023-02-26T05:17:06;94588.00;;;2.60
14023;BMP180;7086;48.116;11.580;2023-02-26T05:19:33;94524.00;;;2.60
14023;BMP180;7086;48.116;11.580;2023-02-26T05:22:06;94652.00;;;2.60
14023;BMP180;7086;48.116;11.580;2023-02-26T05:24:54;94518.00;;;2.50
14023;BMP180;7086;48.116;11.580;2023-02-26T05:27:26;94517.00;;;2.60
14023;BMP180;7086;48.116;11.580;2023-02-26T05:29:58;94627.00;;;2.40
14023;BMP180;7086;48.116;11.580;2023-02-26T05:32:28;94504.00;;;2.50
14023;BMP180;7086;48.116;11.580;2023-02-26T05:34:58;94654.00;;;2.30
14023;BMP180;7086;48.116;11.580;2023-02-26T05:37:27;94517.00;;;2.40
14023;BMP180;7086;48.116;11.580;2023-02-26T05:39:54;94575.00;;;2.30
14023;BMP180;7086;48.116;11.580;2023-02-26T05:42:22;94507.00;;;2.20
14023;BMP180;7086;48.116;11.580;2023-02-26T05:44:49;94635.00;;;2.10
14023;BMP180;7086;48.116;11.580;2023-02-26T05:47:17;94619.00;;;2.20
14023;BMP180;7086;48.116;11.580;2023-02-26T05:52:32;94566.00;;;2.20
14023;BMP180;7086;48.116;11.580;2023-02-26T05:55:00;94659.00;;;2.10
14023;BMP180;7086;48.116;11.580;2023-02-26T05:57:41;94489.00;;;2.00
14023;BMP180;7086;48.116;11.580;2023-02-26T06:00:16;94588.00;;;2.00
14023;BMP180;7086;48.116;11.580;2023-02-26T06:02:47;94619.00;;;2.10
14023;BMP180;7086;48.116;11.580;2023-02-26T06:05:17;94646.00;;;2.00
14023;BMP180;7086;48.116;11.580;2023-02-26T06:07:44;94622.00;;;2.00
14023;BMP180;7086;48.116;11.580;2023-02-26T06:10:12;94642.00;;;2.00
14023;BMP180;7086;48.116;11.580;2023-02-26T06:12:40;94641.00;;;1.80
14023;BMP180;7086;48.116;11.580;2023-02-26T06:15:09;94548.00;;;1.40
14023;BMP180;7086;48.116;11.580;2023-02-26T06:17:38;94648.00;;;1.60
14023;BMP180;7086;48.116;11.580;2023-02-26T06:20:22;94599.00;;;1.90
14023;BMP180;7086;48.116;11.580;2023-02-26T06:23:00;94658.00;;;1.40
14023;BMP180;7086;48.116;11.580;2023-02-26T06:25:39;94550.00;;;1.60
14023;BMP180;7086;48.116;11.580;2023-02-26T06:28:17;94720.00;;;1.80
14023;BMP180;7086;48.116;11.580;2023-02-26T06:31:09;94517.00;;;1.90
14023;BMP180;7086;48.116;11.580;2023-02-26T06:33:40;94588.00;;;1.90
14023;BMP180;7086;48.116;11.580;2023-02-26T06:36:10;94730.00;;;1.90
14023;BMP180;7086;48.116;11.580;2023-02-26T06:38:39;94688.00;;;1.80
14023;BMP180;7086;48.116;11.580;2023-02-26T06:41:18;94719.00;;;1.90
14023;BMP180;7086;48.116;11.580;2023-02-26T06:43:46;94681.00;;;2.00
14023;BMP180;7086;48.116;11.580;2023-02-26T06:46:14;94717.00;;;2.00
14023;BMP180;7086;48.116;11.580;2023-02-26T06:48:42;94588.00;;;2.00
14023;BMP180;7086;48.116;11.580;2023-02-26T06:51:29;94625.00;;;2.00
14023;BMP180;7086;48.116;11.580;2023-02-26T06:53:59;94664.00;;;2.10
14023;BMP180;7086;48.116;11.580;2023-02-26T06:56:27;94659.00;;;1.70
14023;BMP180;7086;48.116;11.580;2023-02-26T06:58:55;94688.00;;;2.10
14023;BMP180;7086;48.116;11.580;2023-02-26T07:01:38;94600.00;;;2.10
14023;BMP180;7086;48.116;11.580;2023-02-26T07:04:10;94742.00;;;2.10
14023;BMP180;7086;48.116;11.580;2023-02-26T07:06:49;94589.00;;;2.10
14023;BMP180;7086;48.116;11.580;2023-02-26T07:09:18;94656.00;;;2.10
14023;BMP180;7086;48.116;11.580;2023-02-26T07:11:48;94801.00;;;2.10
14023;BMP180;7086;48.116;11.580;2023-02-26T07:14:17;94728.00;;;2.20
14023;BMP180;7086;48.116;11.580;2023-02-26T07:16:56;94689.00;;;2.20
14023;BMP180;7086;48.116;11.580;2023-02-26T07:19:25;94681.00;;;2.30
14023;BMP180;7086;48.116;11.580;2023-02-26T07:21:57;94649.00;;;2.30
14023;BMP180;7086;48.116;11.580;2023-02-26T07:24:32;94721.00;;;2.30
14023;BMP180;7086;48.116;11.580;2023-02-26T07:27:06;94676.00;;;2.40
14023;BMP180;7086;48.116;11.580;2023-02-26T07:29:35;94721.00;;;2.40
14023;BMP180;7086;48.116;11.580;2023-02-26T07:32:08;94780.00;;;2.40
14023;BMP180;7086;48.116;11.580;2023-02-26T07:34:50;94685.00;;;2.50
14023;BMP180;7086;48.116;11.580;2023-02-26T07:44:54;94674.00;;;2.60
14023;BMP180;7086;48.116;11.580;2023-02-26T07:47:22;94802.00;;;2.70
14023;BMP180;7086;48.116;11.580;2023-02-26T07:50:11;94729.00;;;2.60
14023;BMP180;7086;48.116;11.580;2023-02-26T07:52:52;94798.00;;;2.70
14023;BMP180;7086;48.116;11.580;2023-02-26T07:55:21;94777.00;;;2.30
14023;BMP180;7086;48.116;11.580;2023-02-26T07:57:52;94749.00;;;2.80
14023;BMP180;7086;48.116;11.580;2023-02-26T08:10:43;94711.00;;;2.60
14023;BMP180;7086;48.116;11.580;2023-02-26T08:28:56;94787.00;;;2.70
14023;BMP180;7086;48.116;11.580;2023-02-26T08:39:38;94831.00;;;2.60
14023;BMP180;7086;48.116;11.580;2023-02-26T08:42:21;94811.00;;;2.60
14023;BMP180;7086;48.116;11.580;2023-02-26T08:47:38;94739.00;;;2.60
14023;BMP180;7086;48.116;11.580;2023-02-26T08:50:16;94746.00;;;2.20
14023;BMP180;7086;48.116;11.580;2023-02-26T08:53:26;94748.00;;;2.70
14023;BMP180;7086;48.116;11.580;2023-02-26T08:59:49;94865.00;;;2.90
14023;BMP180;7086;48.116;11.580;2023-02-26T09:02:35;94771.00;;;2.90
14023;BMP180;7086;48.116;11.580;2023-02-26T09:05:05;94884.00;;;2.80
14023;BMP180;7086;48.116;11.580;2023-02-26T09:07:34;94764.00;;;2.90
14023;BMP180;7086;48.116;11.580;2023-02-26T09:10:16;94809.00;;;3.00
14023;BMP180;7086;48.116;11.580;2023-02-26T09:12:44;94846.00;;;2.90
14023;BMP180;7086;48.116;11.580;2023-02-26T09:15:26;94862.00;;;3.00
14023;BMP180;7086;48.116;11.580;2023-02-26T09:17:55;94862.00;;;2.90
14023;BMP180;7086;48.116;11.580;2023-02-26T09:20:23;94905.00;;;3.20
14023;BMP180;7086;48.116;11.580;2023-02-26T09:22:54;94819.00;;;3.20
14023;BMP180;7086;48.116;11.580;2023-02-26T09:25:35;94795.00;;;3.20
14023;BMP180;7086;48.116;11.580;2023-02-26T09:28:06;94786.00;;;3.30
14023;BMP180;7086;48.116;11.580;2023-02-26T09:30:54;94862.00;;;3.00
14023;BMP180;7086;48.116;11.580;2023-02-26T09:33:41;94925.00;;;3.10
14023;BMP180;7086;48.116;11.580;2023-02-26T09:36:32;94792.00;;;3.10
14023;BMP180;7086;48.116;11.580;2023-02-26T09:39:38;94941.00;;;3.10
14023;BMP180;7086;48.116;11.580;2023-02-26T12:01:12;94808.00;;;4.60
14023;BMP180;7086;48.116;11.580;2023-02-26T12:04:01;94789.00;;;4.40
14023;BMP180;7086;48.116;11.580;2023-02-26T12:07:32;94837.00;;;4.60
14023;BMP180;7086;48.116;11.580;2023-02-26T12:10:47;94858.00;;;4.60
14023;BMP180;7086;48.116;11.580;2023-02-26T12:13:59;94936.00;;;4.70
14023;BMP180;7086;48.116;11.580;2023-02-26T14:14:38;94954.00;;;4.90
14023;BMP180;7086;48.116;11.580;2023-02-26T14:20:28;94920.00;;;4.90
14023;BMP180;7086;48.116;11.580;2023-02-26T14:23:35;94946.00;;;4.90
14023;BMP180;7086;48.116;11.580;2023-02-26T14:26:18;94853.00;;;4.90
14023;BMP180;7086;48.116;11.580;2023-02-26T14:29:18;94917.00;;;4.90
14023;BMP180;7086;48.116;11.580;2023-02-26T14:32:25;94951.00;;;4.90
14023;BMP180;7086;48.116;11.580;2023-02-26T14:35:49;94952.00;;;4.90
14023;BMP180;7086;48.116;11.580;2023-02-26T14:38:59;94966.00;;;5.00
14023;BMP180;7086;48.116;11.580;2023-02-26T14:42:03;94884.00;;;4.90
14023;BMP180;7086;48.116;11.580;2023-02-26T14:44:53;95020.00;;;5.00
14023;BMP180;7086;48.116;11.580;2023-02-26T14:47:47;94989.00;;;4.90
14023;BMP180;7086;48.116;11.580;2023-02-26T14:50:20;94981.00;;;5.10
14023;BMP180;7086;48.116;11.580;2023-02-26T14:53:45;94947.00;;;5.00
14023;BMP180;7086;48.116;11.580;2023-02-26T14:56:53;94887.00;;;4.80
14023;BMP180;7086;48.116;11.580;2023-02-26T15:00:16;94952.00;;;5.10
14023;BMP180;7086;48.116;11.580;2023-02-26T15:16:31;95016.00;;;5.00
14023;BMP180;7086;48.116;11.580;2023-02-26T15:19:44;94843.00;;;5.00
14023;BMP180;7086;48.116;11.580;2023-02-26T15:22:35;94992.00;;;5.00
14023;BMP180;7086;48.116;11.580;2023-02-26T15:28:31;95005.00;;;4.90
14023;BMP180;7086;48.116;11.580;2023-02-26T17:09:55;95125.00;;;4.00
14023;BMP180;7086;48.116;11.580;2023-02-26T17:12:41;95066.00;;;4.00
14023;BMP180;7086;48.116;11.580;2023-02-26T17:15:35;95017.00;;;4.10
14023;BMP180;7086;48.116;11.580;2023-02-26T17:18:28;95039.00;;;4.10
14023;BMP180;7086;48.116;11.580;2023-02-26T17:21:10;95075.00;;;4.10
14023;BMP180;7086;48.116;11.580;2023-02-26T17:24:02;95062.00;;;4.10
14023;BMP180;7086;48.116;11.580;2023-02-26T17:30:22;95123.00;;;4.10
14023;BMP180;7086;48.116;11.580;2023-02-26T17:33:32;95195.00;;;4.10
14023;BMP180;7086;48.116;11.580;2023-02-26T17:43:49;95110.00;;;4.20
14023;BMP180;7086;48.116;11.580;2023-02-26T19:59:46;95282.00;;;3.50
14023;BMP180;7086;48.116;11.580;2023-02-26T20:02:28;95230.00;;;3.50
14023;BMP180;7086;48.116;11.580;2023-02-26T20:05:10;95298.00;;;3.40
14023;BMP180;7086;48.116;11.580;2023-02-26T20:08:13;95191.00;;;3.50
14023;BMP180;7086;48.116;11.580;2023-02-26T20:11:39;95285.00;;;3.50
14023;BMP180;7086;48.116;11.580;2023-02-26T20:19:54;95192.00;;;3.40
14023;BMP180;7086;48.116;11.580;2023-02-26T20:22:36;95269.00;;;3.20
14023;BMP180;7086;48.116;11.580;2023-02-26T20:25:11;95307.00;;;3.50
14023;BMP180;7086;48.116;11.580;2023-02-26T20:27:58;95204.00;;;3.50
14023;BMP180;7086;48.116;11.580;2023-02-26T20:30:40;95322.00;;;3.50
14023;BMP180;7086;48.116;11.580;2023-02-26T20:33:32;95286.00;;;3.40
14023;BMP180;7086;48.116;11.580;2023-02-26T20:47:18;95329.00;;;3.30
14023;BMP180;7086;48.116;11.580;2023-02-26T20:49:49;95336.00;;;3.30
14023;BMP180;7086;48.116;11.580;2023-02-26T20:52:50;95242.00;;;3.30
14023;BMP180;7086;48.116;11.580;2023-02-26T20:55:53;95336.00;;;3.10
14023;BMP180;7086;48.116;11.580;2023-02-26T20:58:22;95285.00;;;3.20
14023;BMP180;7086;48.116;11.580;2023-02-26T21:04:11;95347.00;;;3.20
14023;BMP180;7086;48.116;11.580;2023-02-26T21:06:42;95329.00;;;3.20
14023;BMP180;7086;48.116;11.580;2023-02-26T21:09:24;95294.00;;;2.80
14023;BMP180;7086;48.116;11.580;2023-02-26T21:11:57;95334.00;;;3.20
14023;BMP180;7086;48.116;11.580;2023-02-26T23:37:31;95363.00;;;3.30
14023;BMP180;7086;48.116;11.580;2023-02-26T23:40:00;95268.00;;;3.20
14023;BMP180;7086;48.116;11.580;2023-02-26T23:42:42;95432.00;;;3.30
14023;BMP180;7086;48.116;11.580;2023-02-26T23:45:24;95404.00;;;2.90
14023;BMP180;7086;48.116;11.580;2023-02-26T23:48:06;95392.00;;;3.20
14023;BMP180;7086;48.116;11.580;2023-02-26T23:50:36;95406.00;;;3.20
14023;BMP180;7086;48.116;11.580;2023-02-26T23:53:20;95355.00;;;3.20
14023;BMP180;7086;48.116;11.580;2023-02-26T23:56:01;95388.00;;;3.00
14023;BMP180;7086;48.116;11.580;2023-02-26T23:58:44;95400.00;;;3.20
